createdAt,value
2023-03-03T00:01:53.163Z,1
2023-03-03T00:03:53.688Z,1
2023-03-03T00:05:53.219Z,1
2023-03-03T00:07:52.493Z,1
2023-03-03T00:09:52.806Z,1
2023-03-03T00:11:56.367Z,1
2023-03-03T00:13:52.873Z,1
2023-03-03T00:17:52.308Z,1
2023-03-03T00:19:52.429Z,1
2023-03-03T00:23:53.042Z,1
2023-03-03T00:25:53.234Z,1
2023-03-03T00:27:56.321Z,1
2023-03-03T00:29:52.930Z,1
2023-03-03T00:31:53.055Z,1
2023-03-03T00:33:59.608Z,1
2023-03-03T00:35:52.715Z,1
2023-03-03T00:37:59.487Z,1
2023-03-03T00:39:52.597Z,1
2023-03-03T00:41:52.484Z,1
2023-03-03T00:43:55.773Z,1
2023-03-03T00:45:53.104Z,1
2023-03-03T00:47:52.321Z,1
2023-03-03T00:49:53.061Z,1
2023-03-03T00:51:54.953Z,1
2023-03-03T00:53:53.271Z,1
2023-03-03T00:55:52.486Z,1
2023-03-03T00:57:53.000Z,1
2023-03-03T00:59:52.981Z,1
2023-03-03T01:01:56.453Z,1
2023-03-03T01:03:52.478Z,1
2023-03-03T01:05:56.408Z,1
2023-03-03T01:07:53.114Z,1
2023-03-03T01:09:53.301Z,1
2023-03-03T01:11:56.309Z,1
2023-03-03T01:13:53.125Z,1
2023-03-03T01:16:02.147Z,1
2023-03-03T01:17:56.401Z,1
2023-03-03T01:19:52.354Z,1
2023-03-03T01:21:56.553Z,1
2023-03-03T01:23:56.470Z,1
2023-03-03T01:25:52.867Z,1
2023-03-03T01:27:56.138Z,1
2023-03-03T01:29:59.518Z,1
2023-03-03T01:31:53.102Z,1
2023-03-03T01:33:53.205Z,1
2023-03-03T01:35:56.674Z,1
2023-03-03T01:37:53.214Z,1
2023-03-03T01:39:53.204Z,1
2023-03-03T01:41:53.164Z,1
2023-03-03T01:43:52.564Z,1
2023-03-03T01:45:53.180Z,1
2023-03-03T01:47:59.429Z,1
2023-03-03T01:49:52.500Z,1
2023-03-03T01:51:52.455Z,1
2023-03-03T01:53:53.164Z,1
2023-03-03T01:55:58.412Z,1
2023-03-03T01:57:52.413Z,1
2023-03-03T01:59:52.538Z,1
2023-03-03T02:01:53.441Z,1
2023-03-03T02:03:52.446Z,1
2023-03-03T02:05:53.295Z,1
2023-03-03T02:07:55.296Z,1
2023-03-03T02:09:56.417Z,1
2023-03-03T02:11:56.372Z,1
2023-03-03T02:13:52.477Z,1
2023-03-03T02:15:52.439Z,1
2023-03-03T02:17:52.878Z,1
2023-03-03T02:19:56.432Z,1
2023-03-03T02:21:53.188Z,1
2023-03-03T02:23:55.542Z,1
2023-03-03T02:27:56.429Z,1
2023-03-03T02:29:52.878Z,1
2023-03-03T02:31:56.121Z,1
2023-03-03T02:33:53.189Z,1
2023-03-03T02:35:56.176Z,1
2023-03-03T02:37:53.379Z,1
2023-03-03T02:39:53.242Z,1
2023-03-03T02:41:56.415Z,1
2023-03-03T02:43:53.296Z,1
2023-03-03T02:47:53.168Z,1
2023-03-03T02:49:53.368Z,1
2023-03-03T02:51:59.722Z,1
2023-03-03T02:53:52.447Z,1
2023-03-03T02:55:56.440Z,1
2023-03-03T02:57:53.026Z,1
2023-03-03T02:59:59.060Z,1
2023-03-03T03:01:53.004Z,1
2023-03-03T03:03:53.153Z,1
2023-03-03T03:05:52.846Z,1
2023-03-03T03:07:53.044Z,1
2023-03-03T03:09:53.256Z,1
2023-03-03T03:11:56.041Z,1
2023-03-03T03:13:56.460Z,1
2023-03-03T03:15:52.464Z,1
2023-03-03T03:17:52.969Z,1
2023-03-03T03:19:59.533Z,1
2023-03-03T03:21:56.491Z,1
2023-03-03T03:23:56.438Z,1
2023-03-03T03:25:56.499Z,1
2023-03-03T03:27:53.078Z,1
2023-03-03T03:29:52.412Z,1
2023-03-03T03:31:53.408Z,1
2023-03-03T03:33:54.173Z,1
2023-03-03T03:35:52.538Z,1
2023-03-03T03:37:53.056Z,1
2023-03-03T03:39:52.481Z,1
2023-03-03T03:43:52.425Z,1
2023-03-03T03:45:56.571Z,1
2023-03-03T03:47:56.369Z,1
2023-03-03T03:49:56.502Z,1
2023-03-03T03:51:52.446Z,1
2023-03-03T03:53:56.659Z,1
2023-03-03T03:55:53.255Z,1
2023-03-03T03:57:53.364Z,1
2023-03-03T04:00:01.382Z,1
2023-03-03T04:01:56.625Z,1
2023-03-03T04:03:52.390Z,1
2023-03-03T04:05:53.098Z,1
2023-03-03T04:07:56.531Z,1
2023-03-03T04:09:53.177Z,1
2023-03-03T04:11:55.823Z,1
2023-03-03T04:13:56.230Z,1
2023-03-03T04:15:53.604Z,1
2023-03-03T04:17:56.495Z,1
2023-03-03T04:19:59.659Z,1
2023-03-03T04:21:53.305Z,1
2023-03-03T04:23:52.777Z,1
2023-03-03T04:25:52.538Z,1
2023-03-03T04:27:53.270Z,1
2023-03-03T04:29:53.261Z,1
2023-03-03T04:31:52.994Z,1
2023-03-03T04:33:53.196Z,1
2023-03-03T04:35:53.169Z,1
2023-03-03T04:37:57.279Z,1
2023-03-03T04:39:52.589Z,1
2023-03-03T04:41:56.452Z,1
2023-03-03T04:43:53.109Z,1
2023-03-03T04:45:56.632Z,1
2023-03-03T04:49:56.594Z,1
2023-03-03T04:51:52.936Z,1
2023-03-03T04:53:53.091Z,1
2023-03-03T04:55:59.751Z,1
2023-03-03T04:57:53.334Z,1
2023-03-03T04:59:56.569Z,1
2023-03-03T05:01:53.283Z,1
2023-03-03T05:03:59.253Z,1
2023-03-03T05:05:52.801Z,1
2023-03-03T05:07:52.751Z,1
2023-03-03T05:09:53.057Z,1
2023-03-03T05:11:52.668Z,0
2023-03-03T05:13:53.335Z,0
2023-03-03T05:15:52.392Z,0
2023-03-03T05:17:52.932Z,0
2023-03-03T05:19:52.642Z,0.1
2023-03-03T05:21:51.558Z,0.2
2023-03-03T05:23:53.086Z,0.2
2023-03-03T05:25:57.982Z,0.3
2023-03-03T05:27:52.951Z,0.4
2023-03-03T05:29:52.419Z,0.7
2023-03-03T05:31:58.751Z,1
2023-03-03T05:33:56.596Z,1.3
2023-03-03T05:35:53.481Z,1.9
2023-03-03T05:37:52.970Z,2.6
2023-03-03T05:39:59.814Z,3.7
2023-03-03T05:41:53.122Z,4.7
2023-03-03T05:43:52.905Z,6.4
2023-03-03T05:45:53.220Z,8.2
2023-03-03T05:47:53.100Z,10.5
2023-03-03T05:49:56.845Z,12.8
2023-03-03T05:51:56.002Z,15.6
2023-03-03T05:53:54.181Z,19.1
2023-03-03T05:55:53.188Z,23.3
2023-03-03T05:57:56.670Z,27.1
2023-03-03T05:59:56.453Z,30
2023-03-03T06:01:53.025Z,33.1
2023-03-03T06:03:52.628Z,38.5
2023-03-03T06:05:56.176Z,42.5
2023-03-03T06:07:53.192Z,47
2023-03-03T06:11:56.504Z,60.3
2023-03-03T06:13:52.668Z,63.4
2023-03-03T06:15:53.032Z,70.1
2023-03-03T06:17:52.562Z,77.5
2023-03-03T06:19:56.550Z,85.6
2023-03-03T06:21:57.857Z,90
2023-03-03T06:23:53.173Z,99.5
2023-03-03T06:25:56.514Z,104.6
2023-03-03T06:27:53.025Z,115.6
2023-03-03T06:29:53.246Z,127.7
2023-03-03T06:31:59.567Z,141.2
2023-03-03T06:33:56.553Z,148.4
2023-03-03T06:35:53.538Z,156
2023-03-03T06:37:53.415Z,164
2023-03-03T06:39:52.967Z,172.4
2023-03-03T06:41:56.032Z,181.3
2023-03-03T06:43:56.278Z,190.6
2023-03-03T06:45:52.616Z,200.3
2023-03-03T06:49:52.856Z,221.4
2023-03-03T06:51:53.208Z,232.8
2023-03-03T06:53:53.113Z,232.8
2023-03-03T06:55:56.474Z,232.8
2023-03-03T06:57:52.529Z,232.8
2023-03-03T06:59:56.667Z,232.8
2023-03-03T07:01:52.402Z,232.8
2023-03-03T07:03:56.541Z,244.7
2023-03-03T07:05:52.926Z,244.7
2023-03-03T07:07:59.632Z,257.2
2023-03-03T07:09:53.149Z,270.4
2023-03-03T07:11:59.860Z,284.3
2023-03-03T07:13:55.594Z,298.9
2023-03-03T07:15:53.143Z,330.3
2023-03-03T07:17:56.499Z,347.2
2023-03-03T07:19:52.596Z,365
2023-03-03T07:22:00.585Z,383.8
2023-03-03T07:23:52.762Z,403.4
2023-03-03T07:25:56.489Z,424.1
2023-03-03T07:27:53.281Z,445.9
2023-03-03T07:33:19.890Z,492.7
2023-03-03T07:35:16.607Z,544.6
2023-03-03T07:39:15.067Z,772.8
2023-03-03T07:41:14.970Z,897.8
2023-03-03T07:43:18.503Z,1096.6
2023-03-03T07:45:15.190Z,1152.9
2023-03-03T07:47:14.705Z,1212
2023-03-03T07:49:15.133Z,1212
2023-03-03T07:51:14.723Z,1274.1
2023-03-03T07:53:19.272Z,1274.1
2023-03-03T07:55:18.795Z,1339.4
2023-03-03T07:57:14.726Z,1480.3
2023-03-03T07:59:15.545Z,1636
2023-03-03T08:01:14.761Z,1808
2023-03-03T08:03:15.676Z,2208.3
2023-03-03T08:05:18.914Z,2835.6
2023-03-03T08:07:15.285Z,4023.9
2023-03-03T08:09:18.279Z,5710.1
2023-03-03T08:11:14.832Z,5431.7
2023-03-03T08:13:18.783Z,5431.7
2023-03-03T08:17:15.401Z,5431.7
2023-03-03T08:19:20.748Z,15521.8
2023-03-03T08:21:15.228Z,8955.3
2023-03-03T08:23:18.952Z,10938
2023-03-03T08:25:15.339Z,8955.3
2023-03-03T08:27:15.505Z,7707.9
2023-03-03T08:29:15.273Z,7332
2023-03-03T08:31:22.483Z,7332
2023-03-03T08:33:14.746Z,6974.4
2023-03-03T08:35:14.897Z,6974.4
2023-03-03T08:37:14.905Z,8103.1
2023-03-03T08:39:15.226Z,8518.5
2023-03-03T08:41:18.816Z,8518.5
2023-03-03T08:43:14.854Z,7707.9
2023-03-03T08:45:14.702Z,6974.4
2023-03-03T08:47:18.800Z,5710.1
2023-03-03T08:49:14.905Z,4914.8
2023-03-03T08:51:15.373Z,4230.2
2023-03-03T08:53:14.921Z,4230.2
2023-03-03T08:55:15.180Z,4230.2
2023-03-03T08:57:18.651Z,4447.1
2023-03-03T08:59:14.952Z,4447.1
2023-03-03T09:01:15.463Z,4675.1
2023-03-03T09:03:14.829Z,5166.8
2023-03-03T09:05:14.733Z,5166.8
2023-03-03T09:07:17.037Z,4914.8
2023-03-03T09:09:18.025Z,4675.1
2023-03-03T09:11:17.931Z,4675.1
2023-03-03T09:13:15.547Z,4447.1
2023-03-03T09:19:14.833Z,4230.2
2023-03-03T09:21:17.889Z,4230.2
2023-03-03T09:23:15.005Z,4230.2
2023-03-03T09:25:15.485Z,4675.1
2023-03-03T09:27:18.793Z,4914.8
2023-03-03T09:29:21.970Z,4914.8
2023-03-03T09:31:16.971Z,4914.8
2023-03-03T09:33:15.736Z,5431.7
2023-03-03T09:35:17.036Z,6002.9
2023-03-03T09:37:15.516Z,6310.7
2023-03-03T09:39:14.722Z,7332
2023-03-03T09:41:23.826Z,23155.8
2023-03-03T09:43:19.974Z,10404.6
2023-03-03T09:45:14.720Z,10404.6
2023-03-03T09:47:15.458Z,14764.8
2023-03-03T09:49:15.582Z,13359.7
2023-03-03T09:51:14.975Z,12708.2
2023-03-03T09:53:14.806Z,12708.2
2023-03-03T09:55:15.742Z,14044.7
2023-03-03T09:57:22.006Z,14044.7
2023-03-03T09:59:15.548Z,19930.4
2023-03-03T10:01:15.602Z,24343
2023-03-03T10:03:15.342Z,18958.4
2023-03-03T10:05:14.911Z,38177.4
2023-03-03T10:07:15.066Z,15521.8
2023-03-03T10:09:14.813Z,15521.8
2023-03-03T10:11:15.672Z,14044.7
2023-03-03T10:13:15.463Z,14044.7
2023-03-03T10:15:15.391Z,14764.8
2023-03-03T10:17:15.322Z,12708.2
2023-03-03T10:21:15.232Z,10938
2023-03-03T10:23:15.422Z,9414.4
2023-03-03T10:25:14.852Z,8955.3
2023-03-03T10:27:17.466Z,22026.5
2023-03-03T10:29:14.818Z,12708.2
2023-03-03T10:31:19.868Z,15521.8
2023-03-03T10:33:22.567Z,14044.7
2023-03-03T10:35:15.625Z,13359.7
2023-03-03T10:37:15.512Z,14764.8
2023-03-03T10:39:17.117Z,16317.6
2023-03-03T10:41:15.356Z,15521.8
2023-03-03T10:43:29.623Z,46630
2023-03-03T10:45:20.730Z,13359.7
2023-03-03T10:47:16.002Z,12708.2
2023-03-03T10:49:15.731Z,16317.6
2023-03-03T10:51:16.157Z,17154.2
2023-03-03T10:53:16.149Z,22026.5
2023-03-03T10:55:16.261Z,15521.8
2023-03-03T10:57:16.029Z,56954
2023-03-03T10:59:19.491Z,20952.2
2023-03-03T11:01:16.162Z,22026.5
2023-03-03T11:05:19.230Z,31257
2023-03-03T11:07:16.156Z,38177.4
2023-03-03T11:09:19.002Z,66171.2
2023-03-03T11:11:16.214Z,73130.4
2023-03-03T11:13:20.303Z,69563.8
2023-03-03T11:15:19.208Z,51534.2
2023-03-03T11:17:16.060Z,76879.9
2023-03-03T11:19:19.773Z,42192.6
2023-03-03T11:21:16.150Z,24343
2023-03-03T11:23:16.009Z,23155.8
2023-03-03T11:25:16.236Z,20952.2
2023-03-03T11:27:16.095Z,73130.4
2023-03-03T11:29:16.360Z,54176.4
2023-03-03T11:31:17.405Z,76879.9
2023-03-03T11:33:22.795Z,73130.4
2023-03-03T11:35:16.236Z,73130.4
2023-03-03T11:37:24.695Z,51534.2
2023-03-03T11:39:15.815Z,66171.2
2023-03-03T11:41:21.082Z,69563.8
2023-03-03T11:43:26.414Z,73130.4
2023-03-03T11:45:15.840Z,56954
2023-03-03T11:49:16.156Z,32859.6
2023-03-03T11:51:15.670Z,19930.4
2023-03-03T11:53:16.325Z,23155.8
2023-03-03T11:55:15.674Z,40134.8
2023-03-03T11:57:19.791Z,66171.2
2023-03-03T11:59:15.675Z,73130.4
2023-03-03T12:01:15.659Z,69563.8
2023-03-03T12:03:16.370Z,56954
2023-03-03T12:05:16.392Z,36315.5
2023-03-03T12:07:22.848Z,24343
2023-03-03T12:09:16.123Z,17154.2
2023-03-03T12:11:16.311Z,16317.6
2023-03-03T12:13:16.524Z,29732.6
2023-03-03T12:15:19.646Z,15521.8
2023-03-03T12:17:16.014Z,13359.7
2023-03-03T12:19:16.518Z,12088.4
2023-03-03T12:21:15.731Z,12088.4
2023-03-03T12:23:15.873Z,12708.2
2023-03-03T12:25:15.705Z,14044.7
2023-03-03T12:27:16.383Z,18033.7
2023-03-03T12:31:19.494Z,23155.8
2023-03-03T12:35:16.357Z,20952.2
2023-03-03T12:37:19.493Z,25591.1
2023-03-03T12:39:28.834Z,26903.2
2023-03-03T12:41:17.388Z,34544.4
2023-03-03T12:43:15.999Z,69563.8
2023-03-03T12:45:18.414Z,69563.8
2023-03-03T12:47:16.565Z,66171.2
2023-03-03T12:49:22.807Z,51534.2
2023-03-03T12:51:15.725Z,32859.6
2023-03-03T12:53:24.204Z,66171.2
2023-03-03T12:55:19.516Z,66171.2
2023-03-03T12:57:19.726Z,31257
2023-03-03T12:59:18.139Z,62944
2023-03-03T13:01:22.802Z,62944
2023-03-03T13:03:16.079Z,66171.2
2023-03-03T13:05:18.255Z,59874.1
2023-03-03T13:07:16.177Z,46630
2023-03-03T13:09:16.125Z,42192.6
2023-03-03T13:11:16.327Z,62944
2023-03-03T13:13:16.149Z,59874.1
2023-03-03T13:15:17.196Z,59874.1
2023-03-03T13:17:23.149Z,59874.1
2023-03-03T13:19:22.838Z,51534.2
2023-03-03T13:21:16.376Z,59874.1
2023-03-03T13:23:19.289Z,51534.2
2023-03-03T13:25:19.581Z,56954
2023-03-03T13:27:19.835Z,56954
2023-03-03T13:29:15.736Z,56954
2023-03-03T13:31:15.869Z,56954
2023-03-03T13:33:17.414Z,56954
2023-03-03T13:35:16.310Z,56954
2023-03-03T13:39:16.420Z,56954
2023-03-03T13:41:15.894Z,54176.4
2023-03-03T13:43:16.242Z,54176.4
2023-03-03T13:45:20.848Z,40134.8
2023-03-03T13:47:15.857Z,54176.4
2023-03-03T13:49:20.500Z,51534.2
2023-03-03T13:51:18.792Z,51534.2
2023-03-03T13:53:15.995Z,51534.2
2023-03-03T13:55:19.888Z,51534.2
2023-03-03T13:57:15.897Z,51534.2
2023-03-03T13:59:41.211Z,49020.8
2023-03-03T14:01:36.764Z,51534.2
2023-03-03T14:03:40.765Z,49020.8
2023-03-03T14:05:36.926Z,49020.8
2023-03-03T14:07:41.920Z,49020.8
2023-03-03T14:09:40.587Z,46630
2023-03-03T14:13:40.644Z,42192.6
2023-03-03T14:15:37.158Z,38177.4
2023-03-03T14:17:37.398Z,28282.5
2023-03-03T14:19:38.940Z,32859.6
2023-03-03T14:21:36.541Z,31257
2023-03-03T14:23:38.467Z,34544.4
2023-03-03T14:25:36.508Z,26903.2
2023-03-03T14:27:37.454Z,24343
2023-03-03T14:31:36.695Z,31257
2023-03-03T14:33:43.989Z,24343
2023-03-03T14:35:37.292Z,34544.4
2023-03-03T14:39:40.682Z,34544.4
2023-03-03T14:41:43.794Z,28282.5
2023-03-03T14:43:36.619Z,28282.5
2023-03-03T14:45:40.384Z,28282.5
2023-03-03T14:47:37.399Z,23155.8
2023-03-03T14:49:37.417Z,6634.2
2023-03-03T14:51:39.161Z,6002.9
2023-03-03T14:53:37.348Z,5710.1
2023-03-03T14:55:40.905Z,5710.1
2023-03-03T14:57:37.367Z,4914.8
2023-03-03T14:59:37.353Z,5166.8
2023-03-03T15:01:36.852Z,12708.2
2023-03-03T15:03:41.315Z,17154.2
2023-03-03T15:05:37.210Z,23155.8
2023-03-03T15:07:40.819Z,18958.4
2023-03-03T15:09:37.442Z,19930.4
2023-03-03T15:11:36.861Z,18033.7
2023-03-03T15:13:36.894Z,15521.8
2023-03-03T15:15:37.424Z,13359.7
2023-03-03T15:17:36.718Z,12708.2
2023-03-03T15:19:36.939Z,13359.7
2023-03-03T15:21:39.256Z,8955.3
2023-03-03T15:23:40.959Z,7332
2023-03-03T15:25:43.567Z,7707.9
2023-03-03T15:27:36.968Z,7332
2023-03-03T15:29:37.264Z,12708.2
2023-03-03T15:31:44.095Z,9414.4
2023-03-03T15:33:40.583Z,12088.4
2023-03-03T15:37:39.056Z,6310.7
2023-03-03T15:39:37.500Z,6634.2
2023-03-03T15:41:36.683Z,7707.9
2023-03-03T15:43:36.736Z,10404.6
2023-03-03T15:45:37.167Z,6974.4
2023-03-03T15:47:37.579Z,8955.3
2023-03-03T15:49:38.391Z,6634.2
2023-03-03T15:51:37.330Z,6634.2
2023-03-03T15:53:37.100Z,4447.1
2023-03-03T15:55:46.158Z,3463.4
2023-03-03T15:57:36.797Z,3133.8
2023-03-03T15:59:43.947Z,2981
2023-03-03T16:01:40.680Z,2835.6
2023-03-03T16:03:37.431Z,2697.3
2023-03-03T16:05:40.436Z,2565.7
2023-03-03T16:07:36.753Z,2440.6
2023-03-03T16:09:37.380Z,2321.6
2023-03-03T16:11:37.466Z,2208.3
2023-03-03T16:13:43.914Z,2100.6
2023-03-03T16:15:36.948Z,1998.2
2023-03-03T16:17:37.336Z,1900.7
2023-03-03T16:19:41.093Z,1719.9
2023-03-03T16:21:36.708Z,1636
2023-03-03T16:23:37.675Z,1556.2
2023-03-03T16:25:37.560Z,1480.3
2023-03-03T16:27:40.845Z,1339.4
2023-03-03T16:29:37.390Z,1274.1
2023-03-03T16:31:37.681Z,1152.9
2023-03-03T16:33:37.065Z,1043.1
2023-03-03T16:35:39.599Z,943.9
2023-03-03T16:37:36.696Z,854.1
2023-03-03T16:39:37.046Z,735.1
2023-03-03T16:41:38.823Z,665.1
2023-03-03T16:43:41.022Z,572.5
2023-03-03T16:45:37.099Z,518
2023-03-03T16:47:40.810Z,445.9
2023-03-03T16:49:40.362Z,403.4
2023-03-03T16:51:44.158Z,347.2
2023-03-03T16:53:38.926Z,298.9
2023-03-03T16:55:37.454Z,257.2
2023-03-03T16:57:40.806Z,221.4
2023-03-03T16:59:40.704Z,181.3
2023-03-03T17:01:37.371Z,156
2023-03-03T17:03:37.603Z,127.7
2023-03-03T17:05:37.288Z,104.6
2023-03-03T17:07:39.278Z,81.5
2023-03-03T17:09:40.786Z,63.4
2023-03-03T17:11:36.965Z,49.4
2023-03-03T17:13:44.137Z,36.6
2023-03-03T17:15:37.373Z,27.1
2023-03-03T17:17:40.104Z,19.1
2023-03-03T17:19:37.345Z,13.5
2023-03-03T17:21:37.580Z,9.5
2023-03-03T17:25:37.304Z,4.3
2023-03-03T17:27:40.985Z,2.9
2023-03-03T17:29:37.188Z,2
2023-03-03T17:31:37.694Z,1.3
2023-03-03T17:33:40.415Z,0.9
2023-03-03T17:35:40.562Z,0.6
2023-03-03T17:37:36.636Z,0.4
2023-03-03T17:39:40.716Z,0.3
2023-03-03T17:41:40.777Z,0.2
2023-03-03T17:43:37.440Z,0.1
2023-03-03T17:45:37.259Z,0.1
2023-03-03T17:47:36.830Z,0.1
2023-03-03T17:49:40.554Z,0
2023-03-03T17:51:41.203Z,0
2023-03-03T17:53:36.604Z,0
2023-03-03T17:55:40.877Z,0
2023-03-03T17:57:40.888Z,0
2023-03-03T17:59:37.640Z,1
2023-03-03T18:01:37.391Z,1
2023-03-03T18:03:37.447Z,1
2023-03-03T18:05:37.438Z,1
2023-03-03T18:09:43.557Z,1
2023-03-03T18:11:37.266Z,1
2023-03-03T18:13:40.924Z,1
2023-03-03T18:15:37.033Z,1
2023-03-03T18:17:36.126Z,1
2023-03-03T18:19:37.821Z,1
2023-03-03T18:21:40.525Z,1
2023-03-03T18:23:43.889Z,1
2023-03-03T18:25:37.170Z,1
2023-03-03T18:27:37.389Z,1
2023-03-03T18:29:36.667Z,1
2023-03-03T18:31:40.886Z,1
2023-03-03T18:33:37.474Z,1
2023-03-03T18:35:42.011Z,1
2023-03-03T18:37:36.646Z,1
2023-03-03T18:39:41.029Z,1
2023-03-03T18:41:40.472Z,1
2023-03-03T18:43:37.576Z,1
2023-03-03T18:45:40.761Z,1
2023-03-03T18:47:36.923Z,1
2023-03-03T18:49:36.635Z,1
2023-03-03T18:51:43.935Z,1
2023-03-03T18:53:36.722Z,1
2023-03-03T18:55:36.973Z,1
2023-03-03T18:57:36.644Z,1
2023-03-03T18:59:37.653Z,1
2023-03-03T19:01:37.626Z,1
2023-03-03T19:03:39.327Z,1
2023-03-03T19:05:37.355Z,1
2023-03-03T19:07:40.818Z,1
2023-03-03T19:09:36.669Z,1
2023-03-03T19:11:41.052Z,1
2023-03-03T19:13:37.345Z,1
2023-03-03T19:15:36.888Z,1
2023-03-03T19:17:37.143Z,1
2023-03-03T19:19:40.601Z,1
2023-03-03T19:21:36.741Z,1
2023-03-03T19:23:41.092Z,1
2023-03-03T19:25:40.219Z,1
2023-03-03T19:27:37.305Z,1
2023-03-03T19:29:36.700Z,1
2023-03-03T19:31:37.641Z,1
2023-03-03T19:33:40.902Z,1
2023-03-03T19:35:37.079Z,1
2023-03-03T19:37:44.292Z,1
2023-03-03T19:39:37.415Z,1
2023-03-03T19:41:40.421Z,1
2023-03-03T19:43:37.320Z,1
2023-03-03T19:45:37.248Z,1
2023-03-03T19:47:37.301Z,1
2023-03-03T19:49:37.560Z,1
2023-03-03T19:51:37.665Z,1
2023-03-03T19:53:37.513Z,1
2023-03-03T19:55:41.004Z,1
2023-03-03T19:57:40.844Z,1
2023-03-03T19:59:37.431Z,1
2023-03-03T20:01:37.412Z,1
2023-03-03T20:03:37.556Z,1
2023-03-03T20:05:37.458Z,1
2023-03-03T20:07:37.394Z,1
2023-03-03T20:09:40.808Z,1
2023-03-03T20:11:37.579Z,1
2023-03-03T20:13:44.048Z,1
2023-03-03T20:15:37.736Z,1
2023-03-03T20:17:44.020Z,1
2023-03-03T20:19:37.538Z,1
2023-03-03T20:23:41.074Z,1
2023-03-03T20:25:37.202Z,1
2023-03-03T20:27:37.050Z,1
2023-03-03T20:29:37.621Z,1
2023-03-03T20:31:41.074Z,1
2023-03-03T20:33:37.360Z,1
2023-03-03T20:35:37.821Z,1
2023-03-03T20:37:37.238Z,1
2023-03-03T20:39:37.233Z,1
2023-03-03T20:41:36.950Z,1
2023-03-03T20:43:37.434Z,1
2023-03-03T20:45:37.424Z,1
2023-03-03T20:47:37.606Z,1
2023-03-03T20:49:36.788Z,1
2023-03-03T20:51:37.736Z,1
2023-03-03T20:53:40.226Z,1
2023-03-03T20:55:37.689Z,1
2023-03-03T20:57:36.843Z,1
2023-03-03T20:59:37.069Z,1
2023-03-03T21:01:36.826Z,1
2023-03-03T21:03:40.812Z,1
2023-03-03T21:05:37.239Z,1
2023-03-03T21:07:37.765Z,1
2023-03-03T21:09:40.785Z,1
2023-03-03T21:11:37.709Z,1
2023-03-03T21:13:37.147Z,1
2023-03-03T21:15:37.033Z,1
2023-03-03T21:17:40.894Z,1
2023-03-03T21:19:37.000Z,1
2023-03-03T21:21:36.705Z,1
2023-03-03T21:23:37.254Z,1
2023-03-03T21:25:39.873Z,1
2023-03-03T21:27:37.445Z,1
2023-03-03T21:29:39.977Z,1
2023-03-03T21:31:37.948Z,1
2023-03-03T21:33:36.787Z,1
2023-03-03T21:35:41.063Z,1
2023-03-03T21:37:36.788Z,1
2023-03-03T21:39:41.180Z,1
2023-03-03T21:43:37.385Z,1
2023-03-03T21:45:46.725Z,1
2023-03-03T21:47:37.484Z,1
2023-03-03T21:49:40.026Z,1
2023-03-03T21:51:40.947Z,1
2023-03-03T21:53:37.522Z,1
2023-03-03T21:55:37.689Z,1
2023-03-03T21:57:37.703Z,1
2023-03-03T21:59:37.611Z,1
2023-03-03T22:01:38.414Z,1
2023-03-03T22:03:37.260Z,1
2023-03-03T22:05:37.052Z,1
2023-03-03T22:07:37.829Z,1
2023-03-03T22:09:37.397Z,1
2023-03-03T22:11:37.351Z,1
2023-03-03T22:13:40.851Z,1
2023-03-03T22:15:36.945Z,1
2023-03-03T22:17:40.882Z,1
2023-03-03T22:19:37.749Z,1
2023-03-03T22:21:37.758Z,1
2023-03-03T22:23:37.844Z,1
2023-03-03T22:25:40.974Z,1
2023-03-03T22:27:37.765Z,1
2023-03-03T22:29:36.725Z,1
2023-03-03T22:31:37.617Z,1
2023-03-03T22:33:40.810Z,1
2023-03-03T22:35:44.209Z,1
2023-03-03T22:37:37.604Z,1
2023-03-03T22:39:45.922Z,1
2023-03-03T22:41:40.975Z,1
2023-03-03T22:43:36.904Z,1
2023-03-03T22:45:36.803Z,1
2023-03-03T22:47:40.706Z,1
2023-03-03T22:49:40.848Z,1
2023-03-03T22:51:37.753Z,1
2023-03-03T22:53:40.936Z,1
2023-03-03T22:55:37.730Z,1
2023-03-03T22:57:37.149Z,1
2023-03-03T22:59:37.471Z,1
2023-03-03T23:01:37.499Z,1
2023-03-03T23:03:40.782Z,1
2023-03-03T23:05:44.018Z,1
2023-03-03T23:07:37.704Z,1
2023-03-03T23:09:36.897Z,1
2023-03-03T23:11:37.396Z,1
2023-03-03T23:13:37.292Z,1
2023-03-03T23:15:37.687Z,1
2023-03-03T23:17:40.798Z,1
2023-03-03T23:19:36.936Z,1
2023-03-03T23:21:36.880Z,1
2023-03-03T23:23:45.298Z,1
2023-03-03T23:27:37.441Z,1
2023-03-03T23:29:37.460Z,1
2023-03-03T23:31:44.186Z,1
2023-03-03T23:33:40.552Z,1
2023-03-03T23:35:36.899Z,1
2023-03-03T23:37:40.999Z,1
2023-03-03T23:39:36.906Z,1
2023-03-03T23:41:41.072Z,1
2023-03-03T23:43:40.729Z,1
2023-03-03T23:45:44.093Z,1
2023-03-03T23:47:37.373Z,1
2023-03-03T23:53:37.459Z,1
2023-03-03T23:55:36.830Z,1
2023-03-03T23:57:36.820Z,1
2023-03-03T23:59:44.007Z,1
